Time;durP1;ratioP1;P1;durP2;ratioP2;P2;SDS_P1;SDS_P2;PMS_P1;PMS_P2;Temp;Humidity;BMP_temperature;BMP_pressure;BME280_temperature;BME280_humidity;BME280_pressure;Samples;Min_cycle;Max_cycle;Signal;HPM_P1;HPM_P2
2022/12/20 10:19:15;;;;;;;;;;;;;;;;;;6062101;23;19918;-84
2022/12/20 10:21:51;;;;;;;;;;;;;;;;;;6070308;23;19917;-80
2022/12/20 10:24:18;;;;;;;;;;;;;;;;;;6039696;23;20323;-79
2022/12/20 10:26:44;;;;;;;;;;;;;;;;;;6040926;23;20341;-78
2022/12/20 10:29:10;;;;;;;;;;;;;;;;;;6039229;23;19914;-79
2022/12/20 10:31:35;;;;;;;;;;;;;;;;;;6040909;23;20000;-78
2022/12/20 10:34:00;;;;;;;;;;;;;;;;;;6040987;23;20327;-78
2022/12/20 10:36:27;;;;;;;;;;;;;;;;;;6040248;23;19921;-77
2022/12/20 10:39:06;;;;;;;;;;;;;;;;;;6040673;23;19996;-77
2022/12/20 10:41:43;;;;;;;;;;;;;;;;;;6040673;23;20338;-78
2022/12/20 10:44:28;;;;;;;;;;;;;;;;;;6040597;23;20291;-79
2022/12/20 10:46:54;;;;;;;;;;;;;;;;;;6040797;23;19992;-79
2022/12/20 10:49:19;;;;;;;;;;;;;;;;;;6040836;23;19997;-79
2022/12/20 10:51:52;;;;;;;;;;;;;;;;;;6040474;23;19914;-80
2022/12/20 10:54:36;;;;;;;;;;;;;;;;;;6040506;23;20334;-83
2022/12/20 10:57:19;;;;;;;;;;;;;;;;;;6040699;23;19985;-85
2022/12/20 10:59:51;;;;;;;;;;;;;;;;;;6015495;23;19914;-84
2022/12/20 11:02:25;;;;;;;;;;;;;;;;;;6040664;23;20341;-86
2022/12/20 11:05:17;;;;;;;;;;;;;;;;;;6040555;23;19914;-81
2022/12/20 11:07:54;;;;;;;;;;;;;;;;;;6033847;23;19918;-81
2022/12/20 11:10:21;;;;;;;;;;;;;;;;;;6040864;23;19921;-82
2022/12/20 11:12:59;;;;;;;;;;;;;;;;;;6041765;23;19991;-83
2022/12/20 11:15:26;;;;;;;;;;;;;;;;;;6042397;23;19917;-83
2022/12/20 11:17:54;;;;;;;;;;;;;;;;;;6042244;23;20631;-86
2022/12/20 11:20:20;;;;;;;;;;;;;;;;;;6042554;23;19989;-86
2022/12/20 11:22:51;;;;;;;;;;;;;;;;;;6042493;23;19914;-84
2022/12/20 11:25:23;;;;;;;;;;;;;;;;;;6017209;23;19921;-86
2022/12/20 11:27:48;;;;;;;;;;;;;;;;;;6042484;23;19910;-86
2022/12/20 11:30:26;;;;;;;;;;;;;;;;;;6042193;23;19921;-84
2022/12/20 11:32:57;;;;;;;;;;;;;;;;;;6042479;23;20386;-84
2022/12/20 11:35:51;;;;;;;;;;;;;;;;;;6042400;23;20029;-84
2022/12/20 11:38:16;;;;;;;;;;;;;;;;;;6011860;23;19937;-78
2022/12/20 11:40:48;;;;;;;;;;;;;;;;;;6042139;23;20334;-85
2022/12/20 11:43:45;;;;;;;;;;;;;;;;;;6017087;23;19910;-84
2022/12/20 11:46:16;;;;;;;;;;;;;;;;;;6013354;23;19918;-81
2022/12/20 11:49:05;;;;;;;;;;;;;;;;;;6042044;23;20334;-81
2022/12/20 11:51:45;;;;;;;;;;;;;;;;;;5976336;23;19914;-82
2022/12/20 11:54:18;;;;;;;;;;;;;;;;;;6042290;23;19969;-82
2022/12/20 11:56:46;;;;;;;;;;;;;;;;;;6042162;23;19950;-82
2022/12/20 11:59:14;;;;;;;;;;;;;;;;;;6042098;23;19914;-81
2022/12/20 12:01:42;;;;;;;;;;;;;;;;;;6042164;23;19914;-81
2022/12/20 12:04:10;;;;;;;;;;;;;;;;;;6042319;23;19914;-81
2022/12/20 12:06:44;;;;;;;;;;;;;;;;;;6042024;23;19969;-82
2022/12/20 12:09:10;;;;;;;;;;;;;;;;;;6042262;23;19918;-82
2022/12/20 12:11:37;;;;;;;;;;;;;;;;;;6042049;23;19921;-82
2022/12/20 12:14:04;;;;;;;;;;;;;;;;;;6041875;23;19925;-82
2022/12/20 12:16:29;;;;;;;;;;;;;;;;;;6041868;23;19914;-82
2022/12/20 12:18:56;;;;;;;;;;;;;;;;;;6041697;23;19918;-82
2022/12/20 12:21:44;;;;;;;;;;;;;;;;;;6042152;23;19914;-82
2022/12/20 12:24:19;;;;;;;;;;;;;;;;;;6041338;23;19914;-82
2022/12/20 12:26:44;;;;;;;;;;;;;;;;;;6042237;23;19920;-84
2022/12/20 12:29:14;;;;;;;;;;;;;;;;;;6041923;23;19997;-84
2022/12/20 12:31:55;;;;;;;;;;;;;;;;;;6042402;23;19921;-85
2022/12/20 12:34:20;;;;;;;;;;;;;;;;;;6041632;23;19937;-84
2022/12/20 12:36:51;;;;;;;;;;;;;;;;;;6041930;23;20322;-84
2022/12/20 12:39:25;;;;;;;;;;;;;;;;;;6041631;23;19924;-84
2022/12/20 17:37:17;;;;;;;;;;;;;;;;;;6064215;23;19929;-83
2022/12/20 17:39:43;;;;;;;;;;;;;;;;;;6069956;23;19922;-85
2022/12/20 17:42:11;;;;;;;;;;;;;;;;;;6044495;23;19992;-82
2022/12/20 17:44:36;;;;;;;;;;;;;;;;;;6039903;23;19952;-82
2022/12/20 17:47:01;;;;;;;;;;;;;;;;;;6016218;23;20241;-88
2022/12/20 17:49:27;;;;;;;;;;;;;;;;;;6042475;23;19914;-88
2022/12/20 17:51:52;;;;;;;;;;;;;;;;;;6042974;23;19914;-89
2022/12/20 17:54:19;;;;;;;;;;;;;;;;;;6041371;23;19914;-87
2022/12/20 17:56:44;;;;;;;;;;;;;;;;;;6042084;23;19918;-86
2022/12/20 17:59:10;;;;;;;;;;;;;;;;;;6042383;23;19964;-86
2022/12/20 18:01:35;;;;;;;;;;;;;;;;;;6044151;23;19936;-86
2022/12/20 18:04:03;;;;;;;;;;;;;;;;;;6041722;23;19956;-83
2022/12/20 18:06:30;;;;;;;;;;;;;;;;;;6040910;23;19933;-83
2022/12/20 18:08:56;;;;;;;;;;;;;;;;;;6041825;23;19914;-83
2022/12/20 18:11:23;;;;;;;;;;;;;;;;;;6041437;23;19968;-83
2022/12/20 18:13:49;;;;;;;;;;;;;;;;;;6041082;23;19914;-86
2022/12/20 18:16:16;;;;;;;;;;;;;;;;;;6015671;23;19936;-81
2022/12/20 18:18:41;;;;;;;;;;;;;;;;;;6041743;23;19914;-84
2022/12/20 18:21:10;;;;;;;;;;;;;;;;;;6040475;23;20005;-84
2022/12/20 18:23:44;;;;;;;;;;;;;;;;;;6022500;23;19914;-84
2022/12/20 18:26:12;;;;;;;;;;;;;;;;;;6021934;23;19942;-84
2022/12/20 18:28:37;;;;;;;;;;;;;;;;;;6040770;23;20322;-85
2022/12/20 18:31:03;;;;;;;;;;;;;;;;;;6040802;23;19954;-85
2022/12/20 18:33:29;;;;;;;;;;;;;;;;;;6040639;23;19925;-86
2022/12/20 18:36:05;;;;;;;;;;;;;;;;;;6041151;23;19920;-85
2022/12/20 18:38:31;;;;;;;;;;;;;;;;;;6040235;23;20327;-83
2022/12/20 18:40:58;;;;;;;;;;;;;;;;;;6040760;23;19918;-84
2022/12/20 18:43:23;;;;;;;;;;;;;;;;;;6040867;23;19928;-85
2022/12/20 18:45:48;;;;;;;;;;;;;;;;;;6041470;23;19992;-83
2022/12/20 18:48:13;;;;;;;;;;;;;;;;;;6040837;23;20282;-84
2022/12/20 18:50:39;;;;;;;;;;;;;;;;;;6015381;23;19965;-84
2022/12/20 18:53:04;;;;;;;;;;;;;;;;;;6041237;23;19914;-83
2022/12/20 18:55:29;;;;;;;;;;;;;;;;;;6040431;23;19984;-85
2022/12/20 18:57:55;;;;;;;;;;;;;;;;;;6040269;23;20322;-83
2022/12/20 19:00:20;;;;;;;;;;;;;;;;;;6040502;23;19957;-82
2022/12/20 19:02:45;;;;;;;;;;;;;;;;;;6040258;23;20238;-83
2022/12/20 19:05:11;;;;;;;;;;;;;;;;;;6040729;23;20357;-83
2022/12/20 19:07:36;;;;;;;;;;;;;;;;;;6040528;23;20242;-83
2022/12/20 19:10:02;;;;;;;;;;;;;;;;;;6040703;23;19914;-82
2022/12/20 19:12:27;;;;;;;;;;;;;;;;;;6040675;23;19918;-88
2022/12/20 19:14:52;;;;;;;;;;;;;;;;;;6040741;23;19950;-86
2022/12/20 19:17:18;;;;;;;;;;;;;;;;;;6040701;23;19940;-87
2022/12/20 19:19:43;;;;;;;;;;;;;;;;;;6040471;23;19933;-88
2022/12/20 19:22:08;;;;;;;;;;;;;;;;;;6040423;23;19965;-86
2022/12/20 19:24:34;;;;;;;;;;;;;;;;;;6040253;23;19914;-86
2022/12/20 19:27:00;;;;;;;;;;;;;;;;;;6040986;23;19956;-90
2022/12/20 19:29:25;;;;;;;;;;;;;;;;;;6015805;23;19921;-89
2022/12/20 19:31:50;;;;;;;;;;;;;;;;;;6016160;23;20223;-90
2022/12/20 19:34:15;;;;;;;;;;;;;;;;;;6016271;23;19914;-91
2022/12/20 19:36:42;;;;;;;;;;;;;;;;;;6042658;23;20237;-91
2022/12/20 19:39:11;;;;;;;;;;;;;;;;;;6042400;23;19918;-90
2022/12/20 19:41:37;;;;;;;;;;;;;;;;;;6017517;23;19920;-90
2022/12/20 19:44:03;;;;;;;;;;;;;;;;;;6043016;23;19988;-87
2022/12/20 19:46:28;;;;;;;;;;;;;;;;;;6042919;23;19921;-90
2022/12/20 19:48:54;;;;;;;;;;;;;;;;;;6042865;23;20001;-90
2022/12/20 19:51:20;;;;;;;;;;;;;;;;;;6042752;23;20318;-89
2022/12/20 19:53:46;;;;;;;;;;;;;;;;;;6042672;23;20333;-89
2022/12/20 19:56:13;;;;;;;;;;;;;;;;;;6017664;23;19997;-89
2022/12/20 19:58:39;;;;;;;;;;;;;;;;;;6044965;23;19914;-89
2022/12/20 20:01:05;;;;;;;;;;;;;;;;;;6042503;23;19961;-89
2022/12/20 20:03:31;;;;;;;;;;;;;;;;;;6042583;23;19979;-89
2022/12/20 20:05:57;;;;;;;;;;;;;;;;;;6042445;23;20414;-89
2022/12/20 20:08:22;;;;;;;;;;;;;;;;;;6042298;23;20250;-88
2022/12/20 20:10:51;;;;;;;;;;;;;;;;;;6042363;23;20323;-90
2022/12/20 20:13:17;;;;;;;;;;;;;;;;;;6042325;23;19962;-90
2022/12/20 20:15:47;;;;;;;;;;;;;;;;;;6042467;23;19914;-90
2022/12/20 20:18:13;;;;;;;;;;;;;;;;;;6017301;23;19962;-90
2022/12/20 20:20:39;;;;;;;;;;;;;;;;;;6017336;23;19914;-90
2022/12/20 20:23:04;;;;;;;;;;;;;;;;;;6042387;23;19977;-89
2022/12/20 20:25:34;;;;;;;;;;;;;;;;;;6042212;23;19914;-90
2022/12/20 20:27:59;;;;;;;;;;;;;;;;;;6042304;23;19921;-87
2022/12/20 20:30:24;;;;;;;;;;;;;;;;;;6042092;23;19914;-89
2022/12/20 20:32:49;;;;;;;;;;;;;;;;;;6042262;23;19914;-89
2022/12/20 20:35:15;;;;;;;;;;;;;;;;;;6042461;23;20338;-89
2022/12/20 20:37:41;;;;;;;;;;;;;;;;;;6042254;23;20344;-84
2022/12/20 20:40:06;;;;;;;;;;;;;;;;;;6043439;23;19914;-86
2022/12/20 20:42:32;;;;;;;;;;;;;;;;;;6042478;23;19925;-88
2022/12/20 20:44:57;;;;;;;;;;;;;;;;;;6041525;23;20334;-87
2022/12/20 20:47:24;;;;;;;;;;;;;;;;;;6041768;23;19925;-86
2022/12/20 20:49:51;;;;;;;;;;;;;;;;;;6041706;23;19977;-87
2022/12/20 20:52:16;;;;;;;;;;;;;;;;;;6041575;23;20364;-87
2022/12/20 20:54:42;;;;;;;;;;;;;;;;;;6041490;23;19942;-87
2022/12/20 20:57:07;;;;;;;;;;;;;;;;;;6041564;23;19914;-88
2022/12/20 20:59:32;;;;;;;;;;;;;;;;;;6041514;23;19918;-85
2022/12/20 21:01:58;;;;;;;;;;;;;;;;;;6041614;23;19921;-85
2022/12/20 21:04:23;;;;;;;;;;;;;;;;;;6041547;23;19961;-87
2022/12/20 21:06:48;;;;;;;;;;;;;;;;;;6041339;23;20223;-86
2022/12/20 21:09:14;;;;;;;;;;;;;;;;;;6016024;23;19914;-85
2022/12/20 21:11:39;;;;;;;;;;;;;;;;;;6041197;23;19989;-85
2022/12/20 21:14:04;;;;;;;;;;;;;;;;;;6041503;23;19937;-84
2022/12/20 21:16:29;;;;;;;;;;;;;;;;;;6041267;23;19916;-84
2022/12/20 21:18:56;;;;;;;;;;;;;;;;;;6041337;23;19992;-88
2022/12/20 21:21:22;;;;;;;;;;;;;;;;;;6041348;23;19917;-85
2022/12/20 21:23:47;;;;;;;;;;;;;;;;;;6040897;23;19914;-86
2022/12/20 21:26:14;;;;;;;;;;;;;;;;;;6016017;23;19918;-86
2022/12/20 21:28:42;;;;;;;;;;;;;;;;;;6041108;23;19945;-85
2022/12/20 21:31:10;;;;;;;;;;;;;;;;;;6041163;23;19914;-84
2022/12/20 21:33:36;;;;;;;;;;;;;;;;;;6041012;23;19992;-84
2022/12/20 21:36:02;;;;;;;;;;;;;;;;;;6041178;23;19942;-85
2022/12/20 21:38:28;;;;;;;;;;;;;;;;;;6040803;23;19918;-84
2022/12/20 21:41:00;;;;;;;;;;;;;;;;;;6040995;23;19960;-88
2022/12/20 21:43:26;;;;;;;;;;;;;;;;;;6041055;23;19921;-84
2022/12/20 21:45:51;;;;;;;;;;;;;;;;;;6040965;23;19914;-85
2022/12/20 21:48:18;;;;;;;;;;;;;;;;;;6041418;23;19914;-85
2022/12/20 21:50:43;;;;;;;;;;;;;;;;;;6041557;23;20262;-89
2022/12/20 21:53:09;;;;;;;;;;;;;;;;;;6041271;23;19920;-88
2022/12/20 21:55:34;;;;;;;;;;;;;;;;;;6040952;23;19914;-87
2022/12/20 21:57:59;;;;;;;;;;;;;;;;;;6015648;23;19989;-88
2022/12/20 22:00:25;;;;;;;;;;;;;;;;;;6041098;23;20326;-88
2022/12/20 22:02:50;;;;;;;;;;;;;;;;;;6041109;23;19914;-88
2022/12/20 22:05:15;;;;;;;;;;;;;;;;;;6041387;23;19914;-87
2022/12/20 22:07:41;;;;;;;;;;;;;;;;;;6046892;23;20223;-80
2022/12/20 22:10:06;;;;;;;;;;;;;;;;;;6044576;23;19914;-84
2022/12/20 22:12:32;;;;;;;;;;;;;;;;;;6045237;23;19922;-86
2022/12/20 22:14:57;;;;;;;;;;;;;;;;;;6042532;23;19914;-85
2022/12/20 22:17:23;;;;;;;;;;;;;;;;;;6022673;23;19921;-85
2022/12/20 22:19:49;;;;;;;;;;;;;;;;;;6043140;23;19914;-84
2022/12/20 22:22:15;;;;;;;;;;;;;;;;;;6041273;23;19914;-81
2022/12/20 22:24:40;;;;;;;;;;;;;;;;;;6041085;23;19984;-81
2022/12/20 22:27:06;;;;;;;;;;;;;;;;;;6015615;23;19914;-84
2022/12/20 22:29:31;;;;;;;;;;;;;;;;;;6040773;23;19918;-82
2022/12/20 22:31:56;;;;;;;;;;;;;;;;;;6040711;23;19914;-82
2022/12/20 22:34:22;;;;;;;;;;;;;;;;;;6040478;23;19914;-83
2022/12/20 22:36:47;;;;;;;;;;;;;;;;;;6040715;23;19917;-81
2022/12/20 22:39:13;;;;;;;;;;;;;;;;;;6015129;23;20378;-81
2022/12/20 22:41:38;;;;;;;;;;;;;;;;;;6040543;23;19921;-81
2022/12/20 22:44:03;;;;;;;;;;;;;;;;;;6040145;23;19924;-81
2022/12/20 22:46:29;;;;;;;;;;;;;;;;;;6040543;23;19921;-81
2022/12/20 22:48:54;;;;;;;;;;;;;;;;;;6040549;23;19914;-82
2022/12/20 22:51:20;;;;;;;;;;;;;;;;;;6038962;23;19966;-81
2022/12/20 22:53:47;;;;;;;;;;;;;;;;;;6040488;23;19914;-82
2022/12/20 22:56:12;;;;;;;;;;;;;;;;;;6015196;23;19914;-81
2022/12/20 22:58:38;;;;;;;;;;;;;;;;;;6040551;23;19914;-81
2022/12/20 23:01:04;;;;;;;;;;;;;;;;;;6040533;23;19918;-81
2022/12/20 23:03:30;;;;;;;;;;;;;;;;;;6040345;23;19945;-83
2022/12/20 23:06:00;;;;;;;;;;;;;;;;;;6040403;23;19969;-88
